Terminal Aerodrome Forecast
Issued by NWS Binghamton, NY

Home | Current Version | Previous Version | Text Only | Print | Product List | Glossary On
Versions: 1 2 3 4 5 6 7 8 9 10 11 12 13 14 15 16 17 18 19 20 21
000
FTUS41 KBGM 212320
TAFBGM
TAF
KBGM 212320Z 2200/2224 00000KT P6SM FEW250
     FM220700 VRB03KT P6SM OVC090
     FM221000 14006KT P6SM -SHRA OVC060
     FM221200 15008KT 5SM -SHRA BR OVC030
      TEMPO 2212/2216 2SM SHRA BR OVC009
     FM222000 20006KT P6SM OVC035=

USA.gov is the U.S. government's official web portal to all federal, state and local government web resources and services.